Time;durP1;ratioP1;P1;durP2;ratioP2;P2;SDS_P1;SDS_P2;PMS_P1;PMS_P2;Temp;Humidity;BMP_temperature;BMP_pressure;BME280_temperature;BME280_humidity;BME280_pressure;Samples;Min_cycle;Max_cycle;Signal;HPM_P1;HPM_P2
2024/01/21 00:00:45;;;;;;;39.03;26.58;;;;;;;-4.48;100.00;97314.56;5092113;28;20024;-66
2024/01/21 00:03:11;;;;;;;44.08;27.10;;;;;;;-4.49;100.00;97306.00;5088397;28;20066;-64
2024/01/21 00:05:36;;;;;;;42.58;28.30;;;;;;;-4.50;100.00;97317.13;5081658;28;20055;-65
2024/01/21 00:08:01;;;;;;;61.75;30.15;;;;;;;-4.50;100.00;97311.16;5080852;28;20042;-65
2024/01/21 00:10:27;;;;;;;82.45;36.42;;;;;;;-4.56;100.00;97313.75;5082382;28;20687;-65
2024/01/21 00:12:52;;;;;;;74.90;33.42;;;;;;;-4.57;100.00;97317.19;5090512;28;20047;-65
2024/01/21 00:15:18;;;;;;;55.35;30.80;;;;;;;-4.60;100.00;97312.94;5083625;28;20021;-65
2024/01/21 00:17:43;;;;;;;52.33;25.15;;;;;;;-4.63;100.00;97308.66;5077358;28;20084;-65
2024/01/21 00:20:09;;;;;;;43.40;21.25;;;;;;;-4.63;100.00;97306.06;5079713;28;20051;-64
2024/01/21 00:22:34;;;;;;;32.47;19.63;;;;;;;-4.61;100.00;97319.78;5094722;28;20051;-64
2024/01/21 00:24:59;;;;;;;42.67;26.15;;;;;;;-4.63;100.00;97318.94;5081873;28;20090;-65
2024/01/21 00:27:25;;;;;;;70.53;38.30;;;;;;;-4.65;100.00;97320.66;5083350;28;20081;-65
2024/01/21 00:29:50;;;;;;;53.88;30.27;;;;;;;-4.60;100.00;97324.06;5087036;28;20016;-65
2024/01/21 00:32:15;;;;;;;83.07;42.40;;;;;;;-4.60;100.00;97326.63;5091807;28;20016;-65
2024/01/21 00:34:41;;;;;;;52.80;29.35;;;;;;;-4.52;100.00;97325.75;5086266;28;20485;-65
2024/01/21 00:37:06;;;;;;;38.67;23.38;;;;;;;-4.55;100.00;97336.88;5086016;28;20056;-66
2024/01/21 00:39:33;;;;;;;45.88;27.10;;;;;;;-4.59;100.00;97335.19;5098045;28;20466;-64
2024/01/21 00:41:59;;;;;;;33.08;21.60;;;;;;;-4.64;100.00;97326.66;5084234;28;20028;-67
2024/01/21 00:44:24;;;;;;;34.50;21.70;;;;;;;-4.64;100.00;97330.06;5095580;28;20632;-65
2024/01/21 00:46:50;;;;;;;31.55;19.17;;;;;;;-4.62;100.00;97333.50;5093430;28;20024;-66
2024/01/21 00:49:16;;;;;;;29.02;20.55;;;;;;;-4.60;100.00;97331.75;5087740;28;20108;-65
2024/01/21 00:51:41;;;;;;;35.13;23.10;;;;;;;-4.57;100.00;97327.47;5095148;28;20023;-66
2024/01/21 00:54:07;;;;;;;37.65;24.85;;;;;;;-4.57;100.00;97330.91;5089895;28;20084;-66
2024/01/21 00:56:32;;;;;;;39.03;26.38;;;;;;;-4.57;100.00;97332.59;5096215;28;20016;-66
2024/01/21 00:58:58;;;;;;;50.35;33.28;;;;;;;-4.60;100.00;97334.34;5083178;28;20020;-66
2024/01/21 01:01:23;;;;;;;32.00;21.25;;;;;;;-4.57;100.00;97341.19;5088141;28;20096;-66
2024/01/21 01:03:49;;;;;;;31.77;21.98;;;;;;;-4.57;100.00;97338.63;5088928;28;20035;-66
2024/01/21 01:06:14;;;;;;;32.38;20.77;;;;;;;-4.55;100.00;97336.88;5085014;28;20032;-65
2024/01/21 01:08:39;;;;;;;32.85;23.20;;;;;;;-4.56;100.00;97336.88;5103975;28;20023;-65
2024/01/21 01:11:05;;;;;;;38.67;23.60;;;;;;;-4.66;100.00;97331.81;5086648;28;20123;-66
2024/01/21 01:13:30;;;;;;;34.05;23.13;;;;;;;-4.64;100.00;97337.78;5083293;28;20027;-66
2024/01/21 01:15:58;;;;;;;37.55;24.25;;;;;;;-4.62;100.00;97336.06;5086988;28;20088;-65
2024/01/21 01:18:24;;;;;;;32.05;22.70;;;;;;;-4.66;100.00;97336.94;5089494;28;20055;-66
2024/01/21 01:20:49;;;;;;;42.08;25.08;;;;;;;-4.74;100.00;97338.72;5091726;28;20049;-66
2024/01/21 01:23:15;;;;;;;34.38;22.10;;;;;;;-4.75;100.00;97340.41;5096084;28;20044;-65
2024/01/21 01:25:40;;;;;;;38.03;22.30;;;;;;;-4.76;100.00;97346.41;5073644;28;20035;-66
2024/01/21 01:28:05;;;;;;;27.85;21.15;;;;;;;-4.78;100.00;97343.00;5092240;28;20016;-66
2024/01/21 01:30:31;;;;;;;33.95;21.58;;;;;;;-4.81;100.00;97344.72;5082771;28;20166;-66
2024/01/21 01:32:56;;;;;;;32.60;21.73;;;;;;;-4.77;100.00;97347.28;5082381;28;20035;-66
2024/01/21 01:35:21;;;;;;;25.63;18.73;;;;;;;-4.79;100.00;97345.56;5081641;28;20016;-66
2024/01/21 01:37:47;;;;;;;43.88;25.33;;;;;;;-4.80;100.00;97342.16;5080312;28;20090;-65
2024/01/21 01:40:17;;;;;;;50.70;28.50;;;;;;;-4.75;100.00;97337.00;5067668;28;20111;-66
2024/01/21 01:42:43;;;;;;;56.85;31.20;;;;;;;-4.81;100.00;97345.59;5082096;28;20069;-66
2024/01/21 01:45:08;;;;;;;70.45;38.50;;;;;;;-4.82;100.00;97343.00;5086676;28;20028;-66
2024/01/21 01:47:34;;;;;;;53.55;30.65;;;;;;;-4.81;100.00;97340.44;5091231;28;20024;-66
2024/01/21 01:50:00;;;;;;;48.47;28.55;;;;;;;-4.78;100.00;97344.72;5101708;28;20111;-66
2024/01/21 01:52:25;;;;;;;40.72;25.13;;;;;;;-4.77;100.00;97344.72;5091190;28;20050;-66
2024/01/21 01:54:51;;;;;;;41.88;24.38;;;;;;;-4.79;100.00;97332.72;5094427;28;20020;-66
2024/01/21 01:57:19;;;;;;;38.33;22.35;;;;;;;-4.78;100.00;97337.00;5091734;28;20085;-66
2024/01/21 01:59:44;;;;;;;35.72;21.25;;;;;;;-4.80;100.00;97334.44;5083214;28;20485;-66
2024/01/21 02:02:10;;;;;;;36.03;22.92;;;;;;;-4.78;100.00;97343.00;5104463;28;20039;-66
2024/01/21 02:04:35;;;;;;;26.98;19.40;;;;;;;-4.81;100.00;97349.88;5092189;28;20027;-66
2024/01/21 02:07:01;;;;;;;23.20;15.50;;;;;;;-4.81;100.00;97345.59;5085058;28;21051;-65
2024/01/21 02:09:27;;;;;;;23.13;15.05;;;;;;;-4.79;100.00;97343.88;5089788;28;20027;-66
2024/01/21 02:11:52;;;;;;;23.17;15.68;;;;;;;-4.79;100.00;97343.00;5093345;28;20098;-66
2024/01/21 02:14:17;;;;;;;18.98;15.05;;;;;;;-4.81;100.00;97348.16;5091130;28;20554;-66
2024/01/21 02:16:43;;;;;;;20.85;14.23;;;;;;;-4.80;100.00;97346.44;5089519;28;20099;-66
2024/01/21 02:19:24;;;;;;;19.40;13.00;;;;;;;-4.80;100.00;97344.72;5088535;28;20085;-66
2024/01/21 02:21:50;;;;;;;19.42;14.10;;;;;;;-4.82;100.00;97348.16;5096747;28;20131;-66
2024/01/21 02:24:15;;;;;;;25.45;15.90;;;;;;;-4.80;100.00;97351.56;5090191;28;20040;-66
2024/01/21 02:26:40;;;;;;;19.85;12.63;;;;;;;-4.82;100.00;97345.59;5085140;28;20024;-66
2024/01/21 02:29:06;;;;;;;16.70;12.38;;;;;;;-4.82;100.00;97340.44;5087067;28;20103;-66
2024/01/21 02:31:31;;;;;;;25.60;15.57;;;;;;;-4.85;100.00;97341.34;5092765;28;20080;-66
2024/01/21 02:33:56;;;;;;;12.68;9.75;;;;;;;-4.83;100.00;97349.03;5083843;28;20442;-66
2024/01/21 02:36:22;;;;;;;14.15;10.10;;;;;;;-4.78;100.00;97337.88;5084647;28;20031;-66
2024/01/21 02:38:47;;;;;;;21.88;14.02;;;;;;;-4.76;100.00;97330.13;5077499;28;20019;-66
2024/01/21 02:41:12;;;;;;;20.00;14.23;;;;;;;-4.73;100.00;97339.56;5081604;28;20044;-66
2024/01/21 02:43:38;;;;;;;17.98;13.93;;;;;;;-4.71;100.00;97333.56;5092533;28;20027;-66
2024/01/21 02:46:03;;;;;;;17.83;11.25;;;;;;;-4.67;100.00;97337.81;5083402;28;20024;-66
2024/01/21 02:48:28;;;;;;;18.58;12.10;;;;;;;-4.68;100.00;97337.81;5085887;28;20020;-66
2024/01/21 02:50:54;;;;;;;14.82;10.55;;;;;;;-4.50;100.00;97340.28;5085306;28;20046;-66
2024/01/21 02:53:19;;;;;;;14.02;10.15;;;;;;;-4.51;100.00;97345.44;5093249;28;20392;-66
2024/01/21 02:55:44;;;;;;;15.32;9.75;;;;;;;-4.64;100.00;97335.22;5085492;28;20020;-66
2024/01/21 02:58:10;;;;;;;13.60;10.32;;;;;;;-4.70;100.00;97339.53;5090306;28;20564;-66
2024/01/21 03:00:35;;;;;;;13.02;10.00;;;;;;;-4.73;100.00;97342.13;5087150;28;20032;-66
2024/01/21 03:03:01;;;;;;;12.23;9.27;;;;;;;-4.72;100.00;97352.41;5089070;28;20024;-66
2024/01/21 03:05:26;;;;;;;15.40;9.20;;;;;;;-4.75;100.00;97345.56;5089775;28;20028;-66
2024/01/21 03:07:52;;;;;;;63.15;30.45;;;;;;;-4.71;100.00;97348.97;5077869;28;20086;-66
2024/01/21 03:10:17;;;;;;;35.78;18.88;;;;;;;-4.71;100.00;97342.97;5070377;28;20512;-66
2024/01/21 03:12:42;;;;;;;25.48;15.23;;;;;;;-4.81;100.00;97347.28;5077693;28;20488;-66
2024/01/21 03:15:08;;;;;;;26.00;14.30;;;;;;;-4.83;100.00;97347.31;5102292;28;20427;-66
2024/01/21 03:17:33;;;;;;;15.43;11.63;;;;;;;-4.83;100.00;97347.31;5095447;28;20024;-66
2024/01/21 03:19:59;;;;;;;29.48;14.82;;;;;;;-4.86;100.00;97344.75;5091747;28;20537;-66
2024/01/21 03:22:24;;;;;;;24.15;15.73;;;;;;;-4.88;100.00;97346.47;5079641;28;20540;-66
2024/01/21 03:24:50;;;;;;;22.95;13.43;;;;;;;-4.90;100.00;97341.34;5094395;28;20111;-66
2024/01/21 03:27:16;;;;;;;30.90;19.45;;;;;;;-4.91;100.00;97342.22;5081833;28;20054;-66
2024/01/21 03:29:41;;;;;;;27.17;17.85;;;;;;;-4.95;100.00;97343.09;5080457;28;20044;-66
2024/01/21 03:32:07;;;;;;;26.83;16.17;;;;;;;-4.95;100.00;97348.22;5078408;28;20082;-66
2024/01/21 03:34:32;;;;;;;22.48;15.50;;;;;;;-4.93;100.00;97345.63;5081023;28;20130;-66
2024/01/21 03:36:57;;;;;;;21.13;14.18;;;;;;;-4.95;100.00;97334.50;5093343;28;20077;-66
2024/01/21 03:39:23;;;;;;;17.55;11.13;;;;;;;-4.98;100.00;97343.06;5092000;28;20028;-66
2024/01/21 03:41:48;;;;;;;15.10;10.55;;;;;;;-5.01;100.00;97337.94;5058795;28;20661;-66
2024/01/21 03:44:14;;;;;;;18.58;12.40;;;;;;;-4.98;100.00;97347.38;5091339;28;20055;-66
2024/01/21 03:46:39;;;;;;;15.25;10.85;;;;;;;-4.98;100.00;97348.22;5091353;28;20021;-66
2024/01/21 03:49:05;;;;;;;12.45;9.93;;;;;;;-4.96;100.00;97346.53;5079395;28;20024;-66
2024/01/21 03:51:30;;;;;;;12.82;10.10;;;;;;;-4.98;100.00;97347.38;5077365;28;20059;-66
2024/01/21 03:53:56;;;;;;;13.38;10.95;;;;;;;-4.99;100.00;97349.06;5077920;28;20027;-66
2024/01/21 03:56:21;;;;;;;13.95;9.75;;;;;;;-5.04;100.00;97356.81;5076436;28;20115;-66
2024/01/21 03:58:47;;;;;;;12.10;9.45;;;;;;;-5.02;100.00;97351.66;5103935;28;20020;-66
2024/01/21 04:01:12;;;;;;;11.43;8.68;;;;;;;-4.95;100.00;97349.94;5094601;28;20020;-67
2024/01/21 04:03:37;;;;;;;10.70;8.68;;;;;;;-4.92;100.00;97347.34;5092410;28;20031;-66
2024/01/21 04:06:03;;;;;;;11.73;9.57;;;;;;;-4.91;100.00;97344.78;5093600;28;20172;-67
2024/01/21 04:08:28;;;;;;;11.73;8.52;;;;;;;-4.93;100.00;97345.63;5093743;28;20028;-66
2024/01/21 04:10:54;;;;;;;11.43;8.50;;;;;;;-4.94;100.00;97344.78;5094874;28;20107;-66
2024/01/21 04:13:20;;;;;;;11.07;8.60;;;;;;;-4.94;100.00;97342.22;5107536;28;20129;-66
2024/01/21 04:15:46;;;;;;;12.52;9.85;;;;;;;-4.98;100.00;97331.97;5094718;28;20035;-66
2024/01/21 04:18:11;;;;;;;10.25;8.57;;;;;;;-5.02;100.00;97331.09;5107786;28;20413;-66
2024/01/21 04:20:37;;;;;;;11.18;9.27;;;;;;;-5.00;100.00;97333.69;5097404;28;20441;-66
2024/01/21 04:23:02;;;;;;;12.93;8.82;;;;;;;-5.02;100.00;97333.69;5103072;28;20040;-66
2024/01/21 04:25:28;;;;;;;13.05;10.88;;;;;;;-5.04;100.00;97326.00;5107151;28;20061;-66
2024/01/21 04:27:53;;;;;;;14.40;10.57;;;;;;;-5.04;100.00;97326.00;5098512;28;20049;-66
2024/01/21 04:30:18;;;;;;;18.75;12.00;;;;;;;-5.02;100.00;97336.25;5095008;28;20023;-65
2024/01/21 04:32:44;;;;;;;21.13;11.32;;;;;;;-5.00;100.00;97325.97;5096142;28;20162;-65
2024/01/21 04:35:09;;;;;;;20.10;12.93;;;;;;;-5.00;100.00;97326.81;5097459;28;20035;-65
2024/01/21 04:37:35;;;;;;;18.65;13.85;;;;;;;-4.99;100.00;97325.94;5081431;28;20473;-66
2024/01/21 04:40:00;;;;;;;16.25;12.20;;;;;;;-4.98;100.00;97322.53;5077991;28;20016;-65
2024/01/21 04:42:26;;;;;;;14.07;10.95;;;;;;;-4.97;100.00;97321.69;5094625;28;20108;-65
2024/01/21 04:44:51;;;;;;;16.60;12.10;;;;;;;-5.04;100.00;97330.25;5097849;28;20020;-66
2024/01/21 04:47:17;;;;;;;12.73;8.95;;;;;;;-5.03;100.00;97327.69;5088313;28;20054;-65
2024/01/21 04:49:42;;;;;;;15.65;9.40;;;;;;;-5.01;100.00;97329.41;5108213;28;20028;-65
2024/01/21 04:52:07;;;;;;;13.55;9.70;;;;;;;-5.00;100.00;97337.09;5097968;28;20093;-65
2024/01/21 04:54:33;;;;;;;9.75;8.68;;;;;;;-4.91;100.00;97336.19;5098102;28;20031;-65
2024/01/21 04:56:58;;;;;;;12.70;8.68;;;;;;;-4.89;100.00;97327.63;5100775;28;20109;-65
2024/01/21 04:59:24;;;;;;;12.40;8.73;;;;;;;-4.88;100.00;97328.47;5108991;28;20020;-66
2024/01/21 05:01:49;;;;;;;13.60;9.45;;;;;;;-4.90;100.00;97310.50;5085090;28;21229;-65
2024/01/21 05:04:15;;;;;;;11.95;8.73;;;;;;;-4.92;100.00;97311.38;5098328;28;20020;-65
2024/01/21 05:06:40;;;;;;;11.68;8.63;;;;;;;-4.93;100.00;97320.81;5090300;28;20554;-65
2024/01/21 05:09:06;;;;;;;9.95;8.02;;;;;;;-4.93;100.00;97313.09;5079728;28;20058;-65
2024/01/21 05:11:31;;;;;;;11.95;9.52;;;;;;;-4.95;100.00;97309.69;5083078;28;20451;-65
2024/01/21 05:13:57;;;;;;;8.55;7.65;;;;;;;-4.91;100.00;97324.22;5094345;28;20421;-66
2024/01/21 05:16:22;;;;;;;9.10;7.75;;;;;;;-4.84;100.00;97324.19;5094493;28;20540;-65
2024/01/21 05:18:48;;;;;;;8.82;7.88;;;;;;;-4.66;100.00;97329.25;5086805;28;20026;-65
2024/01/21 05:21:20;;;;;;;13.32;8.52;;;;;;;-4.66;100.00;97339.50;5080139;28;20115;-66
2024/01/21 05:23:47;;;;;;;10.13;8.38;;;;;;;-4.66;100.00;97338.66;5086855;28;20047;-65
2024/01/21 05:26:13;;;;;;;15.48;9.98;;;;;;;-4.61;100.00;97336.94;5086817;28;20424;-66
2024/01/21 05:28:39;;;;;;;11.00;9.30;;;;;;;-4.62;100.00;97346.34;5087155;28;20028;-66
2024/01/21 05:31:04;;;;;;;9.95;8.55;;;;;;;-4.64;100.00;97347.22;5094771;28;20024;-65
2024/01/21 05:33:30;;;;;;;9.63;8.50;;;;;;;-4.64;100.00;97347.22;5066200;28;20058;-65
2024/01/21 05:35:55;;;;;;;9.93;8.52;;;;;;;-4.63;100.00;97357.50;5091622;28;20100;-65
2024/01/21 05:38:20;;;;;;;12.40;9.82;;;;;;;-4.62;100.00;97361.78;5097411;28;20384;-65
2024/01/21 05:40:46;;;;;;;10.70;9.65;;;;;;;-4.64;100.00;97370.38;5086217;28;20583;-66
2024/01/21 05:43:11;;;;;;;14.45;11.63;;;;;;;-4.63;100.00;97369.50;5086487;28;20028;-66
2024/01/21 05:45:37;;;;;;;13.65;11.43;;;;;;;-4.62;100.00;97360.94;5087713;28;20027;-66
2024/01/21 05:48:02;;;;;;;15.23;11.63;;;;;;;-4.64;100.00;97368.63;5106657;28;20144;-66
2024/01/21 05:50:28;;;;;;;18.50;13.15;;;;;;;-4.59;100.00;97360.91;5086806;28;20416;-66
2024/01/21 05:52:53;;;;;;;23.00;16.33;;;;;;;-4.56;100.00;97367.72;5087210;28;20082;-66
2024/01/21 05:55:19;;;;;;;22.17;18.00;;;;;;;-4.57;100.00;97371.16;5077000;28;20533;-65
2024/01/21 05:57:44;;;;;;;22.40;18.55;;;;;;;-4.58;100.00;97382.31;5094567;28;20536;-65
2024/01/21 06:00:10;;;;;;;27.60;22.05;;;;;;;-4.53;100.00;97390.84;5090210;28;20015;-65
2024/01/21 06:02:35;;;;;;;47.83;28.83;;;;;;;-4.51;100.00;97404.56;5088475;28;20481;-65
2024/01/21 06:05:01;;;;;;;38.67;25.25;;;;;;;-4.56;100.00;97406.28;5080263;28;20040;-65
2024/01/21 06:07:27;;;;;;;27.95;19.52;;;;;;;-4.59;100.00;97412.31;5088128;28;20033;-65
2024/01/21 06:09:52;;;;;;;26.52;17.67;;;;;;;-4.57;100.00;97414.88;5079600;28;20056;-66
2024/01/21 06:12:17;;;;;;;21.35;17.10;;;;;;;-4.55;100.00;97421.72;5078570;28;20439;-66
2024/01/21 06:14:45;;;;;;;22.73;16.27;;;;;;;-4.54;100.00;97420.88;5089279;28;20141;-66
2024/01/21 06:17:10;;;;;;;22.77;16.17;;;;;;;-4.56;100.00;97419.16;5043025;28;20044;-66
2024/01/21 06:19:36;;;;;;;26.77;18.80;;;;;;;-4.56;100.00;97421.72;5080467;28;20393;-66
2024/01/21 06:22:01;;;;;;;33.92;23.60;;;;;;;-4.52;100.00;97418.31;5087997;28;20130;-66
2024/01/21 06:24:27;;;;;;;29.95;20.80;;;;;;;-4.51;100.00;97426.00;5082752;28;20523;-65
2024/01/21 06:26:52;;;;;;;26.45;17.95;;;;;;;-4.49;100.00;97428.56;5083402;28;20032;-66
2024/01/21 06:29:18;;;;;;;24.67;18.20;;;;;;;-4.51;100.00;97431.13;5076594;28;20119;-65
2024/01/21 06:31:43;;;;;;;25.75;18.17;;;;;;;-4.55;100.00;97444.00;5076300;28;20039;-65
2024/01/21 06:34:08;;;;;;;23.17;18.30;;;;;;;-4.60;100.00;97436.31;5091188;28;20020;-65
2024/01/21 06:36:34;;;;;;;26.30;19.77;;;;;;;-4.63;100.00;97438.91;5088063;28;20055;-65
2024/01/21 06:38:59;;;;;;;25.08;16.58;;;;;;;-4.64;100.00;97434.63;5090622;28;20400;-65
2024/01/21 06:41:25;;;;;;;21.60;14.88;;;;;;;-4.63;100.00;97428.63;5096477;28;20389;-65
2024/01/21 06:43:50;;;;;;;16.73;13.07;;;;;;;-4.62;100.00;97430.34;5094313;28;20034;-65
2024/01/21 06:46:16;;;;;;;20.52;15.43;;;;;;;-4.64;100.00;97425.19;5096212;28;20099;-65
2024/01/21 06:48:41;;;;;;;28.77;20.17;;;;;;;-4.68;100.00;97427.75;5095227;28;20469;-65
2024/01/21 06:51:11;;;;;;;20.48;15.63;;;;;;;-4.68;100.00;97417.47;5095789;28;20027;-66
2024/01/21 06:53:37;;;;;;;18.30;12.15;;;;;;;-4.58;100.00;97418.31;5082363;28;20029;-66
2024/01/21 06:56:07;;;;;;;23.70;17.13;;;;;;;-4.56;100.00;97412.31;5078202;28;20036;-66
2024/01/21 06:58:33;;;;;;;19.15;14.90;;;;;;;-4.57;100.00;97423.44;5101824;28;20024;-66
2024/01/21 07:00:59;;;;;;;19.70;14.32;;;;;;;-4.61;100.00;97432.03;5097472;28;20036;-66
2024/01/21 07:03:25;;;;;;;18.10;14.70;;;;;;;-4.53;100.00;97439.69;5090383;28;20024;-65
2024/01/21 07:05:50;;;;;;;22.63;16.95;;;;;;;-4.42;100.00;97449.94;5095742;28;20024;-65
2024/01/21 07:08:17;;;;;;;17.88;13.85;;;;;;;-4.43;100.00;97448.22;5094299;28;20382;-66
2024/01/21 07:10:43;;;;;;;17.85;13.55;;;;;;;-4.44;100.00;97457.69;5095612;28;20165;-65
2024/01/21 07:13:08;;;;;;;17.27;12.30;;;;;;;-4.48;100.00;97459.41;5094970;28;20071;-66
2024/01/21 07:15:33;;;;;;;35.88;17.73;;;;;;;-4.43;100.00;97464.53;5094996;28;20028;-66
2024/01/21 07:17:59;;;;;;;27.25;16.63;;;;;;;-4.40;100.00;97479.94;5102910;28;20070;-66
2024/01/21 07:20:24;;;;;;;30.63;17.95;;;;;;;-4.39;100.00;97484.22;5097662;28;20028;-66
2024/01/21 07:22:50;;;;;;;26.45;16.05;;;;;;;-4.38;100.00;97485.09;5075169;28;20079;-65
2024/01/21 07:25:15;;;;;;;24.35;17.52;;;;;;;-4.34;100.00;97489.34;5095088;28;20028;-66
2024/01/21 07:27:42;;;;;;;22.30;15.82;;;;;;;-4.33;100.00;97491.91;5086432;28;20543;-66
2024/01/21 07:30:09;;;;;;;31.35;20.35;;;;;;;-4.33;100.00;97491.91;5085395;28;20020;-66
2024/01/21 07:32:35;;;;;;;30.73;23.15;;;;;;;-4.28;100.00;97499.59;5094440;28;20111;-65
2024/01/21 07:35:00;;;;;;;32.15;25.90;;;;;;;-4.27;100.00;97508.19;5094887;28;20062;-65
2024/01/21 07:37:25;;;;;;;30.00;23.00;;;;;;;-4.26;100.00;97503.03;5096042;28;20028;-65
2024/01/21 07:39:51;;;;;;;25.42;19.50;;;;;;;-4.26;100.00;97505.59;5076040;28;20430;-66
2024/01/21 07:42:16;;;;;;;32.30;23.02;;;;;;;-4.20;100.00;97504.72;5089149;28;20055;-65
2024/01/21 07:44:42;;;;;;;25.70;21.13;;;;;;;-4.12;100.00;97502.97;5075621;28;20066;-66
2024/01/21 07:47:07;;;;;;;36.55;25.55;;;;;;;-4.11;100.00;97509.81;5076920;28;20032;-65
2024/01/21 07:49:32;;;;;;;35.47;26.52;;;;;;;-4.05;100.00;97507.22;5103623;28;20555;-66
2024/01/21 07:51:58;;;;;;;35.17;25.13;;;;;;;-3.98;100.00;97507.19;5098877;28;20032;-66
2024/01/21 07:54:23;;;;;;;32.92;25.23;;;;;;;-3.94;100.00;97508.88;5077461;28;20024;-66
2024/01/21 07:56:48;;;;;;;28.85;24.83;;;;;;;-3.92;100.00;97513.16;5079549;28;20024;-65
2024/01/21 07:59:14;;;;;;;32.85;24.52;;;;;;;-3.83;100.00;97513.97;5097329;28;20039;-66
2024/01/21 08:01:39;;;;;;;30.30;24.00;;;;;;;-3.81;100.00;97525.97;5088545;28;20056;-65
2024/01/21 08:04:04;;;;;;;28.20;22.80;;;;;;;-3.77;100.00;97522.53;5090227;28;20031;-66
2024/01/21 08:06:30;;;;;;;26.02;22.85;;;;;;;-3.70;100.00;97523.34;5080675;28;20058;-66
2024/01/21 08:08:55;;;;;;;28.35;22.70;;;;;;;-3.62;100.00;97515.56;5094021;28;20067;-66
2024/01/21 08:11:20;;;;;;;24.75;20.33;;;;;;;-3.49;100.00;97531.78;5084610;28;20024;-66
2024/01/21 08:13:46;;;;;;;23.15;20.35;;;;;;;-3.42;100.00;97523.16;5093951;28;20906;-66
2024/01/21 08:16:12;;;;;;;25.73;18.75;;;;;;;-3.37;100.00;97517.97;5089810;28;20034;-66
2024/01/21 08:18:37;;;;;;;25.88;18.80;;;;;;;-3.28;100.00;97515.31;5096120;28;20032;-66
2024/01/21 08:21:03;;;;;;;22.15;19.65;;;;;;;-3.22;100.00;97520.41;5088931;28;20043;-66
2024/01/21 08:23:28;;;;;;;21.50;19.30;;;;;;;-3.15;100.00;97515.22;5087602;28;20064;-66
2024/01/21 08:25:53;;;;;;;22.27;19.92;;;;;;;-3.04;100.00;97519.44;5087198;28;20025;-66
2024/01/21 08:28:19;;;;;;;22.58;20.25;;;;;;;-2.93;100.00;97521.91;5083949;28;20027;-66
2024/01/21 08:30:44;;;;;;;25.15;20.67;;;;;;;-2.84;100.00;97514.94;5089911;28;20031;-65
2024/01/21 08:33:10;;;;;;;29.98;24.85;;;;;;;-2.73;100.00;97520.88;5090716;28;20078;-66
2024/01/21 08:35:36;;;;;;;73.40;54.65;;;;;;;-2.63;100.00;97529.38;5080926;28;20029;-66
2024/01/21 08:38:02;;;;;;;44.47;35.63;;;;;;;-2.52;100.00;97527.50;5094441;28;20047;-66
2024/01/21 08:40:27;;;;;;;44.20;35.15;;;;;;;-2.36;100.00;97522.19;5095864;28;20032;-66
2024/01/21 08:42:52;;;;;;;47.95;36.25;;;;;;;-2.33;100.00;97528.16;5088876;28;20039;-66
2024/01/21 08:45:18;;;;;;;38.25;29.73;;;;;;;-2.26;100.00;97541.00;5088711;28;20064;-67
2024/01/21 08:47:44;;;;;;;31.45;25.38;;;;;;;-2.17;100.00;97543.47;5104195;28;20607;-66
2024/01/21 08:50:10;;;;;;;29.52;24.40;;;;;;;-2.03;100.00;97551.03;5089302;28;20074;-66
2024/01/21 08:52:35;;;;;;;26.73;22.90;;;;;;;-1.91;100.00;97555.19;5080087;28;20028;-66
2024/01/21 08:55:01;;;;;;;29.65;24.52;;;;;;;-1.79;100.00;97555.06;5092881;28;20024;-67
2024/01/21 08:57:26;;;;;;;30.25;27.20;;;;;;;-1.69;100.00;97558.38;5080947;28;20464;-67
2024/01/21 08:59:52;;;;;;;31.60;26.13;;;;;;;-1.65;100.00;97562.63;5087331;28;20119;-67
2024/01/21 09:02:20;;;;;;;28.60;20.73;;;;;;;-1.59;100.00;97566.84;5076124;28;20050;-67
2024/01/21 09:04:46;;;;;;;29.23;26.10;;;;;;;-1.60;100.00;97573.75;5093948;28;20030;-67
2024/01/21 09:07:11;;;;;;;23.33;20.33;;;;;;;-1.54;100.00;97569.38;5096665;28;20023;-67
2024/01/21 09:09:37;;;;;;;24.17;20.83;;;;;;;-1.46;100.00;97552.88;5095821;28;20038;-67
2024/01/21 09:12:02;;;;;;;20.88;18.55;;;;;;;-1.40;100.00;97553.69;5085858;28;20062;-68
2024/01/21 09:14:28;;;;;;;22.98;17.27;;;;;;;-1.32;100.00;97544.94;5095088;28;20055;-69
2024/01/21 09:16:53;;;;;;;19.42;17.38;;;;;;;-1.20;100.00;97532.69;5075768;28;20119;-68
2024/01/21 09:19:19;;;;;;;44.90;40.17;;;;;;;-1.16;100.00;97518.84;5090685;28;20016;-68
2024/01/21 09:21:44;;;;;;;25.30;22.73;;;;;;;-1.26;100.00;97533.63;5088146;28;20056;-70
2024/01/21 09:24:11;;;;;;;18.92;16.77;;;;;;;-1.25;100.00;97531.91;5079048;28;20088;-69
2024/01/21 09:26:37;;;;;;;12.77;11.68;;;;;;;-1.17;100.00;97541.25;5081534;28;20035;-69
2024/01/21 09:29:03;;;;;;;11.60;10.40;;;;;;;-1.02;100.00;97552.22;5083010;28;20028;-69
2024/01/21 09:31:29;;;;;;;9.38;8.48;;;;;;;-0.98;100.00;97556.50;5089427;28;20183;-69
2024/01/21 09:33:56;;;;;;;12.80;9.90;;;;;;;-0.87;100.00;97562.31;5092312;28;20461;-69
2024/01/21 09:36:21;;;;;;;16.73;14.25;;;;;;;-0.78;100.00;97565.63;5091492;28;20024;-69
2024/01/21 09:38:47;;;;;;;17.42;15.43;;;;;;;-0.61;100.00;97563.59;5093039;28;20085;-68
2024/01/21 09:41:36;;;;;;;17.15;14.85;;;;;;;-0.45;100.00;97563.34;5090456;28;20028;-69
2024/01/21 09:44:01;;;;;;;23.38;18.10;;;;;;;-0.40;100.00;97558.91;5078569;28;20037;-70
2024/01/21 09:46:28;;;;;;;21.73;18.05;;;;;;;-0.34;100.00;97558.81;5094656;28;20038;-69
2024/01/21 09:48:55;;;;;;;25.83;23.17;;;;;;;-0.20;100.00;97552.53;5092883;28;20082;-69
2024/01/21 09:51:22;;;;;;;39.83;22.40;;;;;;;0.02;100.00;97558.16;5083212;28;20047;-68
2024/01/21 09:53:48;;;;;;;43.55;32.10;;;;;;;0.24;100.00;97560.28;5081671;28;20031;-68
2024/01/21 09:56:13;;;;;;;46.20;36.13;;;;;;;0.40;100.00;97569.44;5089607;28;20030;-69
2024/01/21 09:58:50;;;;;;;28.85;24.45;;;;;;;0.52;100.00;97588.19;5091798;28;20028;-68
2024/01/21 10:01:16;;;;;;;19.40;15.82;;;;;;;0.59;100.00;97604.47;5069393;28;20027;-69
2024/01/21 10:03:42;;;;;;;18.52;15.93;;;;;;;0.65;100.00;97601.75;5086259;28;20027;-69
2024/01/21 10:06:07;;;;;;;14.45;12.95;;;;;;;0.79;100.00;97607.50;5094287;28;20027;-69
2024/01/21 10:08:37;;;;;;;24.25;18.17;;;;;;;0.93;100.00;97612.38;5086798;28;20027;-69
2024/01/21 10:11:02;;;;;;;24.65;20.00;;;;;;;1.20;100.00;97616.91;5089747;28;20035;-69
2024/01/21 10:13:30;;;;;;;26.48;22.95;;;;;;;1.23;100.00;97622.06;5085072;28;20024;-69
2024/01/21 10:15:57;;;;;;;23.92;20.95;;;;;;;1.35;100.00;97624.34;5083643;28;20024;-69
2024/01/21 10:18:22;;;;;;;19.75;17.65;;;;;;;1.33;100.00;97610.56;5085037;28;20161;-69
2024/01/21 10:20:48;;;;;;;32.58;26.60;;;;;;;1.39;100.00;97622.53;5071693;28;20066;-68
2024/01/21 10:23:13;;;;;;;21.20;19.13;;;;;;;1.36;100.00;97623.44;5093394;28;20071;-69
2024/01/21 10:25:43;;;;;;;14.68;13.18;;;;;;;1.41;100.00;97616.41;5089583;28;20023;-69
2024/01/21 10:28:11;;;;;;;22.77;20.52;;;;;;;1.41;100.00;97611.22;5082603;28;20023;-68
2024/01/21 10:30:42;;;;;;;9.65;8.65;;;;;;;1.47;100.00;97607.63;5086907;28;20512;-68
2024/01/21 10:33:08;;;;;;;10.45;9.45;;;;;;;1.45;100.00;97609.41;5087220;28;20658;-68
2024/01/21 10:35:33;;;;;;;8.45;7.65;;;;;;;1.45;100.00;97601.59;5083002;28;20037;-68
2024/01/21 10:38:02;;;;;;;11.73;10.57;;;;;;;1.43;100.00;97604.22;5109393;28;20047;-68
2024/01/21 10:40:27;;;;;;;11.70;10.50;;;;;;;1.37;100.00;97601.81;5095031;28;20074;-68
2024/01/21 10:42:57;;;;;;;7.85;7.15;;;;;;;1.21;100.00;97608.25;5083631;28;20036;-68
2024/01/21 10:45:24;;;;;;;6.93;6.30;;;;;;;1.17;100.00;97604.88;5080265;28;20081;-68
2024/01/21 10:47:50;;;;;;;6.55;5.95;;;;;;;1.22;100.00;97589.22;5093246;28;20390;-68
2024/01/21 10:50:17;;;;;;;11.10;10.05;;;;;;;1.33;100.00;97591.56;5086772;28;20092;-68
2024/01/21 10:52:48;;;;;;;13.85;12.45;;;;;;;1.43;100.00;97585.22;5088343;28;20695;-68
2024/01/21 10:55:13;;;;;;;13.20;11.85;;;;;;;1.38;100.00;97566.31;5089444;28;20121;-68
2024/01/21 10:57:39;;;;;;;12.88;11.23;;;;;;;1.45;100.00;97560.06;5088995;28;20078;-68
2024/01/21 11:00:06;;;;;;;22.45;20.40;;;;;;;1.37;100.00;97555.06;5078360;28;20638;-68
2024/01/21 11:02:32;;;;;;;19.67;17.88;;;;;;;1.44;100.00;97537.59;5078649;28;20098;-68
2024/01/21 11:04:58;;;;;;;15.23;13.73;;;;;;;1.52;100.00;97537.41;5089818;28;20027;-68